This is the latest recevied weather packets stored in our database for station/object IZ1UKX-13. If no packets are shown the sender has not sent any weather packets the latest 10 day(s).
| Time | Temp. | Humidity | Pressure | Rain* | Wind** | Luminosity | Snow |
|---|---|---|---|---|---|---|---|
| 1777810117 | 22.22° C | 54% | 1022.7 hPa | 0 mm | - | 0 W/m² | - |
| 1777809817 | 21.67° C | 54% | 1022.7 hPa | 0 mm | - | 0 W/m² | - |
| 1777809517 | 21.67° C | 56% | 1022.7 hPa | 0 mm | - | 0 W/m² | - |
| 1777809217 | 21.11° C | 56% | 1022.7 hPa | 0 mm | - | 0 W/m² | - |
| 1777808917 | 20.56° C | 59% | 1022.7 hPa | 0 mm | - | 0 W/m² | - |
| 1777808617 | 20° C | 60% | 1023.2 hPa | 0 mm | - | 0 W/m² | - |
| 1777808317 | 20.56° C | 57% | 1022.7 hPa | 0 mm | - | 0 W/m² | - |
| 1777808017 | 20.56° C | 56% | 1022.7 hPa | 0 mm | - | 0 W/m² | - |
| 1777807717 | 20.56° C | 54% | 1022.7 hPa | 0 mm | - | 0 W/m² | - |
| 1777807417 | 20.56° C | 53% | 1022.7 hPa | 0 mm | - | 0 W/m² | - |
| 1777807117 | 21.67° C | 51% | 1022.7 hPa | 0 mm | - | 0 W/m² | - |
| 1777806817 | 21.67° C | 50% | 1022.7 hPa | 0 mm | - | 0 W/m² | - |
| 1777806517 | 21.67° C | 50% | 1022.7 hPa | 0 mm | - | 0 W/m² | - |
| 1777806217 | 21.67° C | 49% | 1022.7 hPa | 0 mm | - | 0 W/m² | - |
| 1777805917 | 21.67° C | 50% | 1022.7 hPa | 0 mm | - | 0 W/m² | - |
| 1777805617 | 21.67° C | 50% | 1022.7 hPa | 0 mm | - | 0 W/m² | - |
| 1777805317 | 21.11° C | 51% | 1022.7 hPa | 0 mm | - | 0 W/m² | - |
| 1777805017 | 20.56° C | 52% | 1022.7 hPa | 0 mm | - | 0 W/m² | - |
| 1777804718 | 20° C | 52% | 1023.2 hPa | 0 mm | - | 0 W/m² | - |
| 1777804418 | 19.44° C | 54% | 1023.2 hPa | 0 mm | - | 0 W/m² | - |
| 1777804117 | 19.44° C | 52% | 1023.2 hPa | 0 mm | - | 0 W/m² | - |
| 1777803818 | 20° C | 50% | 1023.2 hPa | 0 mm | - | 0 W/m² | - |
| 1777803517 | 20.56° C | 49% | 1023.2 hPa | 0 mm | - | 0 W/m² | - |
| 1777803217 | 20.56° C | 48% | 1023.2 hPa | 0 mm | - | 0 W/m² | - |
| 1777802917 | 20.56° C | 48% | 1023.2 hPa | 0 mm | - | 0 W/m² | - |
* Rain latest hour (hover to see other rain measurements)
** Current wind speed in m/s (hover to see current wind gust speed)